Accueil
METAR-TAF:

METAR-TAF

Aéroports :

Port Moresby, Papouasie-Nouvelle-Guinée

Aéroport de Port Moresby-Jacksons

latitude: 09-26S, longitude: 147-13E, altitude: 38 m

Observation

Le bulletin a été fait il y a 45 minutes, à 04:00 UTC
Vent 10 kt de ouest
Température 31°C
Humidité 66%
Pression 1006 hPa
Visibilité 10 km ou plus
Nuages épars à une hauteur de 2000 ft
Nuages fragmentés à une hauteur de 14000 ft

METAR: AYPY 220400Z 26010KT 9999 SCT020 BKN140 31/24 Q1006

Heure: 14:45 (04:45 UTC)

Prévision

Le bulletin a été fait il y a 6 heures et 45 minutes, à 22:00 UTC
Prévision valable du 22 à 00 UTC au 22 à 24 UTC
Vent 6 kt de ouest
Visibilité 10 km ou plus
Nuages épars à une hauteur de 1800 ft
A partir de 22 à 0400 UTC
Vent 8 kt de sud/sud-est
Visibilité 10 km ou plus
Nuages épars à une hauteur de 2000 ft
Nuages fragmentés à une hauteur de 4000 ft

TAF: AYPY 212200Z 2200/2224 28006KT 9999 SCT018 FM220400 16008KT 9999 SCT020 BKN040

Observations et prévisions météorologiques de plus de 4000 aéroports (messages METAR et TAF).

Les stations disponibles sont représentées par des disques jaunes et rouges sur la carte.

Passer la souris dessus pour voir le nom de la station.

Cliquer dessus pour voir les observations et prévisions météorologiques.

Pour changer de carte: cliquez sur les boutons verts avec une croix noire pour zoomer, sur le bouton vert avec un tiret pour effectuer un zoom arrière, ou sur les flèches vertes pour les cartes adjacentes.


METAR-TAF: